TimePDT,TemperatureF,Dew PointF,Humidity,Sea Level PressureIn,VisibilityMPH,Wind Direction,Wind SpeedMPH,Gust SpeedMPH,PrecipitationIn,Events,Conditions,WindDirDegrees,DateUTC
12:53 AM,41.0,39.9,96,30.20,10.0,Calm,Calm,-,N/A,,Clear,0,2012-10-18 07:53:00
1:53 AM,41.0,39.9,96,30.20,10.0,Calm,Calm,-,N/A,,Clear,0,2012-10-18 08:53:00
2:53 AM,42.1,39.9,92,30.20,10.0,Calm,Calm,-,N/A,,Clear,0,2012-10-18 09:53:00
3:53 AM,41.0,39.0,93,30.17,10.0,West,3.5,-,N/A,,Clear,270,2012-10-18 10:53:00
4:53 AM,39.0,37.9,96,30.16,10.0,Calm,Calm,-,N/A,,Clear,0,2012-10-18 11:53:00
5:53 AM,39.0,37.9,96,30.14,10.0,Calm,Calm,-,N/A,,Clear,0,2012-10-18 12:53:00
6:36 AM,37.4,37.4,100,30.13,1.8,Calm,Calm,-,N/A,,Clear,0,2012-10-18 13:36:00
6:45 AM,37.4,37.4,100,30.12,2.5,Calm,Calm,-,N/A,,Clear,0,2012-10-18 13:45:00
6:53 AM,37.9,37.0,97,30.12,5.0,Calm,Calm,-,N/A,,Clear,0,2012-10-18 13:53:00
7:18 AM,37.4,37.4,100,30.11,1.8,Calm,Calm,-,N/A,,Clear,0,2012-10-18 14:18:00
7:28 AM,37.4,37.4,100,30.10,0.5,Calm,Calm,-,N/A,Fog,Fog,0,2012-10-18 14:28:00
7:44 AM,37.4,35.6,93,30.10,1.2,Calm,Calm,-,N/A,,Clear,0,2012-10-18 14:44:00
7:51 AM,37.4,35.6,93,30.10,3.0,Calm,Calm,-,N/A,,Clear,0,2012-10-18 14:51:00
7:53 AM,37.9,36.0,93,30.11,6.0,Calm,Calm,-,N/A,,Clear,0,2012-10-18 14:53:00
8:53 AM,42.1,41.0,96,30.09,10.0,Calm,Calm,-,N/A,,Clear,0,2012-10-18 15:53:00
9:53 AM,48.9,44.1,83,30.08,10.0,Calm,Calm,-,N/A,,Clear,0,2012-10-18 16:53:00
10:53 AM,52.0,45.0,77,30.05,10.0,Calm,Calm,-,N/A,,Clear,0,2012-10-18 17:53:00
11:53 AM,57.0,46.0,67,30.02,10.0,Calm,Calm,-,N/A,,Clear,0,2012-10-18 18:53:00
12:53 PM,64.0,45.0,50,29.99,10.0,Variable,3.5,-,N/A,,Clear,0,2012-10-18 19:53:00
1:53 PM,66.0,46.0,48,29.97,10.0,SE,4.6,-,N/A,,Clear,130,2012-10-18 20:53:00
2:53 PM,66.9,46.9,49,29.93,10.0,SE,6.9,-,N/A,,Clear,140,2012-10-18 21:53:00
3:53 PM,66.0,48.0,52,29.91,10.0,SE,6.9,-,N/A,,Clear,140,2012-10-18 22:53:00
4:53 PM,64.9,46.9,52,29.90,10.0,South,3.5,-,N/A,,Clear,170,2012-10-18 23:53:00
5:53 PM,62.1,48.9,62,29.88,10.0,South,4.6,-,N/A,,Clear,180,2012-10-19 00:53:00
6:53 PM,57.0,51.1,81,29.88,10.0,Calm,Calm,-,N/A,,Clear,0,2012-10-19 01:53:00
7:53 PM,57.0,51.1,81,29.94,10.0,WNW,3.5,-,0.00,Rain,Light Rain,300,2012-10-19 02:53:00
8:53 PM,55.9,53.1,90,29.91,5.0,Calm,Calm,-,0.07,Rain,Rain,0,2012-10-19 03:53:00
9:53 PM,54.0,53.1,97,29.93,9.0,Calm,Calm,-,0.02,,Scattered Clouds,0,2012-10-19 04:53:00
10:41 PM,53.6,53.6,100,29.93,2.5,Calm,Calm,-,N/A,,Mostly Cloudy,0,2012-10-19 05:41:00
10:49 PM,53.6,53.6,100,29.93,5.0,Calm,Calm,-,N/A,,Mostly Cloudy,0,2012-10-19 05:49:00
10:53 PM,54.0,53.1,97,29.93,6.0,Calm,Calm,-,N/A,,Mostly Cloudy,0,2012-10-19 05:53:00
11:53 PM,54.0,53.1,97,29.93,9.0,Calm,Calm,-,0.01,,Overcast,0,2012-10-19 06:53:00